Time;durP1;ratioP1;P1;durP2;ratioP2;P2;SDS_P1;SDS_P2;PMS_P1;PMS_P2;Temp;Humidity;BMP_temperature;BMP_pressure;BME280_temperature;BME280_humidity;BME280_pressure;Samples;Min_cycle;Max_cycle;Signal;HPM_P1;HPM_P2
2021/11/06 00:00:45;;;;;;;17.65;7.53;;;;;;;11.67;79.20;99358.63;4954019;29;20127;-74
2021/11/06 00:03:11;;;;;;;18.73;7.80;;;;;;;11.64;79.99;99354.44;4954003;29;20053;-76
2021/11/06 00:05:37;;;;;;;18.42;7.53;;;;;;;11.62;80.13;99363.50;4953785;29;20090;-78
2021/11/06 00:08:03;;;;;;;20.15;8.38;;;;;;;11.60;80.47;99365.44;4939074;29;20047;-77
2021/11/06 00:10:29;;;;;;;17.65;7.97;;;;;;;11.59;80.55;99358.44;4935395;29;20413;-77
2021/11/06 00:12:56;;;;;;;19.05;8.15;;;;;;;11.55;80.50;99363.19;4950594;29;20047;-77
2021/11/06 00:15:22;;;;;;;14.77;7.50;;;;;;;11.53;80.08;99367.78;4952589;29;20047;-76
2021/11/06 00:17:48;;;;;;;20.17;8.30;;;;;;;11.48;80.58;99368.16;4953036;29;20046;-75
2021/11/06 00:20:15;;;;;;;19.73;7.68;;;;;;;11.47;80.19;99363.00;4954433;29;20572;-79
2021/11/06 00:22:41;;;;;;;18.60;8.13;;;;;;;11.47;80.27;99377.06;4953959;28;20074;-74
2021/11/06 00:25:09;;;;;;;17.67;7.97;;;;;;;11.44;80.04;99361.47;4952208;28;20079;-75
2021/11/06 00:27:35;;;;;;;17.48;8.30;;;;;;;11.43;79.64;99370.38;4934382;29;20042;-76
2021/11/06 00:30:04;;;;;;;18.23;7.80;;;;;;;11.48;79.62;99368.16;4926731;29;20051;-77
2021/11/06 00:32:29;;;;;;;16.80;8.02;;;;;;;11.51;79.36;99347.69;4919099;29;20052;-77
2021/11/06 00:34:56;;;;;;;16.67;7.68;;;;;;;11.55;79.08;99362.34;4934963;29;20048;-76
2021/11/06 00:37:22;;;;;;;17.83;8.77;;;;;;;11.51;79.07;99350.34;4935128;29;20072;-79
2021/11/06 00:39:48;;;;;;;19.13;7.70;;;;;;;11.52;79.09;99352.84;4931027;29;20047;-75
2021/11/06 00:42:13;;;;;;;19.02;8.77;;;;;;;11.52;78.93;99352.03;4945928;29;20043;-75
2021/11/06 00:44:39;;;;;;;22.05;9.20;;;;;;;11.47;78.94;99350.59;4953726;29;20382;-79
2021/11/06 00:47:05;;;;;;;19.23;8.13;;;;;;;11.46;79.00;99351.59;4953624;29;20046;-75
2021/11/06 00:49:31;;;;;;;19.15;8.70;;;;;;;11.39;79.42;99353.09;4935290;29;20046;-76
2021/11/06 00:51:57;;;;;;;20.15;8.15;;;;;;;11.36;79.53;99358.63;4947813;29;20078;-73
2021/11/06 00:54:22;;;;;;;22.40;8.93;;;;;;;11.34;79.34;99347.34;4933324;29;20406;-74
2021/11/06 00:56:48;;;;;;;22.65;9.02;;;;;;;11.28;79.78;99354.00;4939941;29;20082;-75
2021/11/06 00:59:15;;;;;;;18.92;9.02;;;;;;;11.26;79.46;99352.44;4937702;29;20038;-76
2021/11/06 01:01:41;;;;;;;20.75;8.68;;;;;;;11.21;79.16;99362.59;4943998;29;20075;-77
2021/11/06 01:04:07;;;;;;;19.27;8.38;;;;;;;11.19;79.12;99364.53;4939503;29;20044;-77
2021/11/06 01:06:33;;;;;;;21.92;8.35;;;;;;;11.09;79.08;99356.50;4936205;29;20486;-75
2021/11/06 01:08:59;;;;;;;20.80;8.85;;;;;;;11.07;78.45;99348.72;4934425;29;20043;-75
2021/11/06 01:11:25;;;;;;;18.90;8.32;;;;;;;11.07;78.02;99356.66;4932992;29;20046;-76
2021/11/06 01:13:51;;;;;;;19.88;8.65;;;;;;;11.12;77.30;99335.09;4896503;29;20077;-74
2021/11/06 01:16:16;;;;;;;18.50;8.95;;;;;;;11.12;77.14;99337.75;4922060;29;20039;-79
2021/11/06 01:18:42;;;;;;;20.75;9.52;;;;;;;11.09;76.63;99338.00;4910611;29;20041;-75
2021/11/06 01:21:08;;;;;;;21.60;9.60;;;;;;;11.08;77.03;99347.75;4926153;29;20043;-74
2021/11/06 01:23:34;;;;;;;19.50;9.88;;;;;;;11.05;76.43;99340.06;4934687;29;20131;-78
2021/11/06 01:26:02;;;;;;;22.35;9.00;;;;;;;11.07;76.15;99343.41;4946745;28;20058;-76
2021/11/06 01:28:29;;;;;;;19.33;8.13;;;;;;;11.08;75.78;99355.69;4953247;28;20039;-76
2021/11/06 01:30:55;;;;;;;20.38;8.38;;;;;;;11.08;75.54;99347.75;4950465;28;20063;-76
2021/11/06 01:33:20;;;;;;;20.85;9.23;;;;;;;11.08;75.49;99345.09;4953411;28;20035;-76
2021/11/06 01:35:46;;;;;;;19.77;8.75;;;;;;;11.05;75.18;99339.22;4954469;28;20161;-74
2021/11/06 01:38:12;;;;;;;18.58;8.23;;;;;;;11.07;75.18;99343.41;4936087;29;20047;-76
2021/11/06 01:40:38;;;;;;;20.27;9.95;;;;;;;11.02;75.26;99342.97;4955162;28;20090;-74
2021/11/06 01:43:04;;;;;;;22.40;9.57;;;;;;;10.99;75.28;99337.94;4960863;28;20051;-78
2021/11/06 01:45:30;;;;;;;17.55;8.80;;;;;;;10.89;75.26;99337.88;4958728;28;20101;-75
2021/11/06 01:47:56;;;;;;;23.02;9.73;;;;;;;10.84;75.82;99343.56;4973304;28;20444;-73
2021/11/06 01:50:23;;;;;;;23.27;9.57;;;;;;;10.79;75.62;99329.03;4959327;28;20061;-77
2021/11/06 01:52:49;;;;;;;20.92;9.05;;;;;;;10.72;75.98;99344.56;4965456;28;20050;-76
2021/11/06 01:55:15;;;;;;;20.52;9.57;;;;;;;10.64;76.09;99336.44;4956046;29;20392;-77
2021/11/06 01:57:41;;;;;;;20.35;8.85;;;;;;;10.60;75.59;99342.94;4956196;28;20050;-75
2021/11/06 02:00:13;;;;;;;23.95;8.90;;;;;;;10.52;75.82;99330.38;4935845;28;20051;-74
2021/11/06 02:02:41;;;;;;;25.60;9.93;;;;;;;10.42;75.92;99332.06;4959853;28;20133;-74
2021/11/06 02:05:08;;;;;;;21.63;9.40;;;;;;;10.34;76.00;99333.53;4961278;28;20109;-75
2021/11/06 02:07:34;;;;;;;21.85;8.60;;;;;;;10.29;76.54;99342.78;4962157;28;20039;-74
2021/11/06 02:10:00;;;;;;;23.45;10.35;;;;;;;10.24;76.70;99352.88;4955359;29;20047;-74
2021/11/06 02:12:27;;;;;;;25.23;9.85;;;;;;;10.16;76.60;99343.78;4954808;28;20054;-74
2021/11/06 02:14:53;;;;;;;21.45;9.85;;;;;;;10.15;76.52;99344.72;4956116;29;20453;-75
2021/11/06 02:17:19;;;;;;;20.20;9.15;;;;;;;10.13;76.44;99338.75;4956607;28;20083;-77
2021/11/06 02:19:45;;;;;;;18.92;9.30;;;;;;;10.11;75.91;99351.22;4955900;28;20039;-76
2021/11/06 02:22:11;;;;;;;23.77;8.80;;;;;;;10.11;75.82;99356.53;4938076;29;20060;-73
2021/11/06 02:24:37;;;;;;;16.98;8.25;;;;;;;10.10;75.79;99349.56;4942389;29;20039;-77
2021/11/06 02:27:03;;;;;;;23.70;9.32;;;;;;;10.09;75.11;99344.41;4955717;28;20492;-76
2021/11/06 02:29:29;;;;;;;20.38;8.73;;;;;;;10.06;75.22;99339.38;4962921;28;20051;-76
2021/11/06 02:31:55;;;;;;;23.42;8.70;;;;;;;10.01;75.42;99340.56;4962564;28;20583;-76
2021/11/06 02:34:21;;;;;;;24.10;9.35;;;;;;;9.95;75.27;99342.88;4956052;28;20039;-74
2021/11/06 02:36:47;;;;;;;25.17;9.60;;;;;;;9.91;75.58;99336.16;4964346;28;20042;-74
2021/11/06 02:39:13;;;;;;;22.25;8.88;;;;;;;9.85;75.55;99330.38;4966613;28;20519;-72
2021/11/06 02:41:39;;;;;;;20.70;8.55;;;;;;;9.83;75.01;99327.03;4955561;28;20481;-73
2021/11/06 02:44:12;;;;;;;19.33;9.00;;;;;;;9.82;75.48;99320.06;4955367;29;20087;-74
2021/11/06 02:46:39;;;;;;;29.27;9.60;;;;;;;9.79;75.27;99322.94;4955181;29;20051;-77
2021/11/06 02:49:06;;;;;;;19.95;8.68;;;;;;;9.77;75.48;99327.53;4953036;28;20050;-74
2021/11/06 02:51:33;;;;;;;23.42;9.15;;;;;;;9.74;75.56;99332.22;4955604;28;20616;-78
2021/11/06 02:53:58;;;;;;;17.92;8.82;;;;;;;9.74;75.60;99329.56;4973350;28;20074;-76
2021/11/06 02:56:26;;;;;;;22.23;8.93;;;;;;;9.68;75.59;99329.09;4963417;28;20135;-74
2021/11/06 02:58:52;;;;;;;21.90;9.23;;;;;;;9.68;75.41;99337.03;4965632;28;20469;-76
2021/11/06 03:01:18;;;;;;;19.45;9.45;;;;;;;9.70;75.71;99342.16;4955580;28;20074;-73
2021/11/06 03:03:43;;;;;;;22.88;9.20;;;;;;;9.80;75.18;99343.13;4937801;29;20489;-76
2021/11/06 03:06:09;;;;;;;19.70;8.38;;;;;;;9.81;75.63;99354.53;4953845;29;20059;-75
2021/11/06 03:08:35;;;;;;;22.85;8.82;;;;;;;9.77;74.93;99359.22;4955031;29;20399;-75
2021/11/06 03:11:01;;;;;;;24.27;10.35;;;;;;;9.84;74.92;99365.69;4963194;28;20081;-75
2021/11/06 03:13:27;;;;;;;18.40;8.40;;;;;;;9.86;74.46;99357.66;4955184;28;20066;-75
2021/11/06 03:15:53;;;;;;;21.52;8.88;;;;;;;9.87;73.98;99354.88;4937393;29;20622;-74
2021/11/06 03:18:18;;;;;;;20.58;8.00;;;;;;;9.88;74.21;99351.28;4953136;28;20043;-74
2021/11/06 03:20:44;;;;;;;20.08;7.65;;;;;;;9.87;73.44;99346.13;4954667;28;20054;-74
2021/11/06 03:23:10;;;;;;;19.30;7.78;;;;;;;9.82;72.69;99343.84;4954643;29;20452;-75
2021/11/06 03:25:36;;;;;;;19.67;7.32;;;;;;;9.84;71.79;99347.22;4954635;28;20051;-76
2021/11/06 03:28:02;;;;;;;14.48;6.28;;;;;;;9.84;69.43;99347.22;4936407;29;20069;-74
2021/11/06 03:30:28;;;;;;;10.18;5.68;;;;;;;9.77;68.86;99359.22;4958458;28;20075;-73
2021/11/06 03:32:54;;;;;;;12.27;5.88;;;;;;;9.73;68.48;99344.56;4954564;29;20071;-75
2021/11/06 03:35:20;;;;;;;11.00;4.75;;;;;;;9.65;67.40;99352.25;4954068;28;20101;-73
2021/11/06 03:37:46;;;;;;;7.28;4.78;;;;;;;9.59;67.57;99360.66;4933787;29;20044;-74
2021/11/06 03:40:12;;;;;;;10.15;5.10;;;;;;;9.48;66.75;99365.00;4951529;28;20170;-73
2021/11/06 03:42:39;;;;;;;11.02;5.25;;;;;;;9.42;67.00;99357.53;4954169;29;20062;-74
2021/11/06 03:45:06;;;;;;;9.38;4.90;;;;;;;9.26;66.75;99354.38;4952626;29;20171;-78
2021/11/06 03:47:32;;;;;;;8.07;4.50;;;;;;;9.16;66.99;99370.06;4935496;29;20058;-80
2021/11/06 03:49:58;;;;;;;10.20;5.20;;;;;;;9.14;67.24;99364.91;4925619;28;20043;-75
2021/11/06 03:52:24;;;;;;;10.15;5.30;;;;;;;9.11;67.34;99356.41;4958102;28;20031;-76
2021/11/06 03:54:50;;;;;;;9.10;4.43;;;;;;;9.00;66.34;99359.88;4963511;28;20588;-74
2021/11/06 03:57:16;;;;;;;8.25;4.65;;;;;;;9.02;66.61;99342.09;4965073;28;20100;-75
2021/11/06 03:59:42;;;;;;;9.32;4.72;;;;;;;8.86;65.74;99343.28;4971731;28;20096;-75
2021/11/06 04:02:08;;;;;;;9.77;4.35;;;;;;;8.82;65.87;99341.84;4944291;28;20064;-75
2021/11/06 04:04:33;;;;;;;8.85;4.60;;;;;;;8.70;66.06;99354.13;4953163;28;20366;-75
2021/11/06 04:06:59;;;;;;;7.43;4.15;;;;;;;8.75;65.83;99351.16;4955874;28;20042;-74
2021/11/06 04:09:25;;;;;;;30.05;11.43;;;;;;;8.72;65.97;99356.66;4954636;29;20035;-76
2021/11/06 04:11:51;;;;;;;7.38;4.05;;;;;;;8.68;65.62;99360.47;4953607;28;20054;-77
2021/11/06 04:14:17;;;;;;;11.15;4.20;;;;;;;8.66;65.82;99372.91;4948902;28;20085;-78
2021/11/06 04:16:43;;;;;;;8.18;4.50;;;;;;;8.61;66.02;99346.94;4953958;29;20075;-79
2021/11/06 04:19:10;;;;;;;7.47;4.57;;;;;;;8.61;66.07;99348.69;4953710;28;20043;-78
2021/11/06 04:21:36;;;;;;;7.07;4.70;;;;;;;8.51;66.24;99344.13;4954269;28;20074;-80
2021/11/06 04:24:02;;;;;;;8.82;4.75;;;;;;;8.55;66.36;99350.00;4937271;29;20083;-76
2021/11/06 04:26:28;;;;;;;9.93;4.63;;;;;;;8.49;66.30;99340.75;4953716;29;20176;-78
2021/11/06 04:28:54;;;;;;;7.30;3.97;;;;;;;8.47;65.91;99358.47;4936329;28;20523;-78
2021/11/06 04:31:21;;;;;;;9.77;4.75;;;;;;;8.46;65.98;99351.53;4953860;29;20068;-76
2021/11/06 04:33:47;;;;;;;8.43;3.63;;;;;;;8.48;65.80;99349.59;4936873;28;20107;-77
2021/11/06 04:36:12;;;;;;;6.05;3.90;;;;;;;8.41;65.70;99345.69;4953088;29;20091;-77
2021/11/06 04:38:38;;;;;;;6.53;4.00;;;;;;;8.40;65.51;99344.88;4936650;29;20648;-78
2021/11/06 04:41:04;;;;;;;7.43;3.97;;;;;;;8.32;65.38;99341.94;4952534;28;20049;-76
2021/11/06 04:43:30;;;;;;;11.90;6.20;;;;;;;8.35;65.87;99343.53;4944065;29;20133;-78
2021/11/06 04:45:56;;;;;;;10.50;4.03;;;;;;;8.32;66.08;99364.84;4954236;28;20059;-80
2021/11/06 04:48:22;;;;;;;6.93;4.13;;;;;;;8.26;66.11;99348.53;4936642;28;20038;-77
2021/11/06 04:50:47;;;;;;;6.70;4.18;;;;;;;8.16;65.89;99355.44;4954348;28;20544;-80
2021/11/06 04:53:14;;;;;;;7.28;4.15;;;;;;;8.14;66.06;99357.31;4969274;28;20050;-78
2021/11/06 04:55:39;;;;;;;7.32;3.90;;;;;;;8.05;66.13;99357.97;4961753;28;20048;-79
2021/11/06 04:58:05;;;;;;;9.95;6.10;;;;;;;8.04;66.53;99353.66;4952726;28;20073;-80
2021/11/06 05:00:31;;;;;;;6.97;4.32;;;;;;;7.93;66.69;99355.25;4957430;28;20039;-78
2021/11/06 05:02:57;;;;;;;9.52;4.35;;;;;;;7.93;66.84;99349.16;4961766;28;20129;-77
2021/11/06 05:05:23;;;;;;;10.07;4.43;;;;;;;7.92;67.13;99348.34;4965611;28;20405;-75
2021/11/06 05:07:50;;;;;;;9.40;5.10;;;;;;;7.93;67.19;99344.72;4952257;28;20079;-75
2021/11/06 05:10:16;;;;;;;9.00;4.70;;;;;;;7.97;67.26;99347.16;4943654;28;20091;-75
2021/11/06 05:12:42;;;;;;;13.27;7.82;;;;;;;8.00;67.39;99333.75;4934040;29;20082;-76
2021/11/06 05:15:08;;;;;;;11.30;5.25;;;;;;;8.00;67.15;99331.97;4950276;28;20075;-75
2021/11/06 05:17:34;;;;;;;10.23;4.65;;;;;;;7.98;67.15;99336.50;4953649;28;20484;-77
2021/11/06 05:20:01;;;;;;;8.43;4.45;;;;;;;7.97;67.28;99334.81;4958319;28;20074;-75
2021/11/06 05:22:28;;;;;;;9.50;4.45;;;;;;;7.96;66.95;99334.94;4956912;28;20155;-75
2021/11/06 05:24:54;;;;;;;9.40;4.43;;;;;;;7.94;67.21;99335.88;4956343;28;20575;-76
2021/11/06 05:27:20;;;;;;;8.13;4.28;;;;;;;7.95;67.16;99344.63;4956668;28;20099;-77
2021/11/06 05:29:45;;;;;;;11.93;4.75;;;;;;;7.96;67.34;99334.94;4956178;28;20409;-76
2021/11/06 05:32:11;;;;;;;7.63;4.10;;;;;;;7.95;67.02;99331.47;4952835;28;20057;-76
2021/11/06 05:34:37;;;;;;;8.60;4.78;;;;;;;7.93;67.41;99307.84;4956359;28;20031;-75
2021/11/06 05:37:03;;;;;;;10.77;4.63;;;;;;;7.90;67.22;99318.63;4956801;28;20465;-77
2021/11/06 05:39:29;;;;;;;12.52;5.10;;;;;;;7.90;67.42;99315.13;4956691;28;20493;-77
2021/11/06 05:41:55;;;;;;;7.20;4.72;;;;;;;7.86;67.25;99321.59;4956924;28;20039;-76
2021/11/06 05:44:21;;;;;;;11.63;5.22;;;;;;;7.84;67.47;99329.59;4958784;28;20187;-78
2021/11/06 05:46:47;;;;;;;8.07;4.38;;;;;;;7.84;67.82;99332.22;4977143;28;20488;-78
2021/11/06 05:49:12;;;;;;;14.85;4.50;;;;;;;7.88;67.72;99336.31;4977368;28;20188;-78
2021/11/06 05:51:39;;;;;;;8.57;4.68;;;;;;;8.00;67.24;99331.97;4967437;28;20130;-76
2021/11/06 05:54:05;;;;;;;6.80;4.47;;;;;;;8.13;67.00;99334.56;4957232;29;20043;-79
2021/11/06 05:56:31;;;;;;;13.07;5.93;;;;;;;8.14;66.38;99325.72;4942983;28;20070;-79
2021/11/06 05:58:57;;;;;;;7.00;4.32;;;;;;;8.07;66.21;99332.38;4958019;28;20126;-75
2021/11/06 06:01:23;;;;;;;8.57;5.40;;;;;;;8.13;66.51;99333.72;4957391;28;20039;-77
2021/11/06 06:03:49;;;;;;;7.32;4.63;;;;;;;8.07;66.20;99346.41;4931002;29;20047;-82
2021/11/06 06:06:15;;;;;;;10.82;4.80;;;;;;;8.09;66.53;99357.63;4956364;28;20043;-76
2021/11/06 06:08:40;;;;;;;8.52;4.93;;;;;;;8.09;66.54;99351.53;4959985;28;20047;-80
2021/11/06 06:11:06;;;;;;;7.88;4.82;;;;;;;8.07;66.70;99350.81;4959040;28;20512;-78
2021/11/06 06:13:32;;;;;;;9.50;4.50;;;;;;;8.00;66.63;99365.34;4957955;29;20066;-77
2021/11/06 06:15:58;;;;;;;10.20;5.38;;;;;;;8.07;66.49;99361.34;4939930;29;20055;-81
2021/11/06 06:18:23;;;;;;;8.05;4.70;;;;;;;8.17;66.19;99362.34;4949064;28;20049;-77
2021/11/06 06:20:49;;;;;;;9.23;4.97;;;;;;;8.17;66.26;99354.44;4966877;28;20085;-79
2021/11/06 06:23:16;;;;;;;9.13;4.47;;;;;;;8.29;65.83;99325.53;4955956;28;20098;-78
2021/11/06 06:25:41;;;;;;;10.52;4.40;;;;;;;8.34;65.96;99332.16;4941401;28;20059;-78
2021/11/06 06:28:08;;;;;;;8.45;4.47;;;;;;;8.39;65.67;99332.66;4932134;28;20047;-79
2021/11/06 06:30:35;;;;;;;7.25;4.28;;;;;;;8.39;65.33;99318.66;4940016;28;20570;-80
2021/11/06 06:33:02;;;;;;;9.38;4.18;;;;;;;8.49;65.57;99313.56;4960698;28;20137;-82
2021/11/06 06:35:29;;;;;;;7.57;5.00;;;;;;;8.57;65.12;99306.78;4959681;28;20051;-78
2021/11/06 06:38:01;;;;;;;11.70;6.03;;;;;;;8.66;65.09;99304.38;4946804;28;20113;-77
2021/11/06 06:40:27;;;;;;;10.57;5.40;;;;;;;8.68;64.98;99297.22;4958740;28;20113;-79
2021/11/06 06:42:53;;;;;;;14.48;6.63;;;;;;;8.68;64.73;99313.03;4950827;28;20054;-77
2021/11/06 06:45:21;;;;;;;13.95;5.95;;;;;;;8.68;64.76;99313.03;4957456;28;20483;-75
2021/11/06 06:47:46;;;;;;;21.87;8.80;;;;;;;8.75;64.83;99311.63;4954328;28;20031;-77
2021/11/06 06:50:12;;;;;;;11.98;6.45;;;;;;;8.75;64.04;99319.53;4959348;28;20299;-80
2021/11/06 06:52:39;;;;;;;21.92;7.95;;;;;;;8.65;64.71;99326.41;4937766;28;20457;-78
2021/11/06 06:55:06;;;;;;;17.02;6.13;;;;;;;8.52;65.03;99316.81;4962257;28;20047;-76
2021/11/06 06:57:32;;;;;;;11.38;4.88;;;;;;;8.45;65.31;99328.72;4951493;28;20122;-80
2021/11/06 06:59:58;;;;;;;7.38;4.20;;;;;;;8.33;65.12;99335.72;4957215;28;20110;-81
2021/11/06 07:02:23;;;;;;;9.48;4.82;;;;;;;8.30;65.36;99335.13;4956071;28;20047;-79
2021/11/06 07:04:49;;;;;;;10.75;5.10;;;;;;;8.29;65.53;99333.44;4956550;29;20138;-78
2021/11/06 07:07:15;;;;;;;26.38;12.35;;;;;;;8.30;65.35;99340.38;4940099;28;20057;-76
2021/11/06 07:09:42;;;;;;;28.55;11.25;;;;;;;8.33;65.48;99332.28;4973098;28;20376;-77
2021/11/06 07:12:09;;;;;;;39.38;10.60;;;;;;;8.26;65.98;99332.72;4957311;28;20053;-76
2021/11/06 07:14:39;;;;;;;22.50;7.70;;;;;;;8.25;65.80;99338.94;4958546;28;20043;-78
2021/11/06 07:17:06;;;;;;;17.42;8.05;;;;;;;8.30;65.72;99329.84;4929735;29;20043;-78
2021/11/06 07:19:33;;;;;;;13.13;5.93;;;;;;;8.29;65.67;99328.16;4920574;29;20146;-81
2021/11/06 07:22:00;;;;;;;8.88;4.13;;;;;;;8.28;65.95;99334.41;4956243;29;20127;-77
2021/11/06 07:24:27;;;;;;;13.10;5.63;;;;;;;8.20;65.99;99351.59;4954044;28;20770;-77
2021/11/06 07:26:54;;;;;;;20.75;9.40;;;;;;;8.25;66.04;99341.56;4922683;29;20055;-78
2021/11/06 07:29:20;;;;;;;22.38;10.10;;;;;;;8.33;65.96;99316.47;4948044;28;20130;-79
2021/11/06 07:31:46;;;;;;;16.98;4.60;;;;;;;8.35;65.62;99319.81;4963050;28;20139;-77
2021/11/06 07:34:12;;;;;;;13.48;4.63;;;;;;;8.29;65.63;99325.53;4962494;28;20468;-77
2021/11/06 07:36:37;;;;;;;13.27;6.97;;;;;;;8.35;65.84;99322.44;4963919;28;20034;-79
2021/11/06 07:39:04;;;;;;;9.70;4.75;;;;;;;8.38;65.62;99322.22;4974076;28;20508;-74
2021/11/06 07:41:29;;;;;;;8.32;4.93;;;;;;;8.34;65.72;99334.78;4957142;28;20047;-78
2021/11/06 07:43:56;;;;;;;12.75;6.15;;;;;;;8.43;65.85;99333.25;4960769;28;20106;-81
2021/11/06 07:46:22;;;;;;;18.52;7.82;;;;;;;8.43;65.65;99335.91;4964534;28;20058;-76
2021/11/06 07:48:49;;;;;;;16.33;6.80;;;;;;;8.55;65.51;99334.19;4964384;28;20079;-77
2021/11/06 07:51:15;;;;;;;10.20;5.13;;;;;;;8.55;65.53;99321.03;4938414;28;20046;-77
2021/11/06 07:53:42;;;;;;;13.70;6.07;;;;;;;8.49;65.58;99330.22;4941591;28;20138;-79
2021/11/06 07:56:07;;;;;;;14.05;5.18;;;;;;;8.58;65.33;99334.81;4954748;28;20085;-76
2021/11/06 07:58:33;;;;;;;7.30;5.03;;;;;;;8.57;65.42;99330.50;4966351;28;20420;-77
2021/11/06 08:01:00;;;;;;;9.27;4.55;;;;;;;8.56;65.28;99318.25;4966434;28;20528;-79
2021/11/06 08:03:30;;;;;;;11.55;4.55;;;;;;;8.52;65.27;99313.31;4973150;28;20047;-81
2021/11/06 08:05:55;;;;;;;10.30;5.15;;;;;;;8.56;65.09;99302.44;4965843;28;20105;-81
2021/11/06 08:08:21;;;;;;;12.45;5.13;;;;;;;8.62;65.24;99300.31;4937452;28;20133;-78
2021/11/06 08:10:49;;;;;;;12.63;4.75;;;;;;;8.68;64.92;99302.47;4960392;28;20365;-82
2021/11/06 08:13:15;;;;;;;59.28;23.38;;;;;;;8.74;64.89;99317.84;4961387;28;20051;-77
2021/11/06 08:15:42;;;;;;;16.48;6.88;;;;;;;8.75;64.56;99322.16;4967788;28;20042;-76
2021/11/06 08:18:08;;;;;;;31.08;11.23;;;;;;;8.67;64.59;99320.09;4967372;28;20135;-81
2021/11/06 08:20:35;;;;;;;10.10;4.93;;;;;;;8.66;64.60;99299.97;4954445;28;20058;-76
2021/11/06 08:23:02;;;;;;;12.38;5.00;;;;;;;8.71;65.11;99312.78;4937181;29;20525;-76
2021/11/06 08:25:28;;;;;;;12.23;4.90;;;;;;;8.67;64.88;99295.53;4954708;28;20055;-81
2021/11/06 08:27:55;;;;;;;10.88;5.07;;;;;;;8.76;64.57;99309.81;4954147;28;20090;-79
2021/11/06 08:30:23;;;;;;;10.90;4.82;;;;;;;8.80;64.78;99314.75;4954766;28;20079;-77
2021/11/06 08:32:50;;;;;;;25.13;10.55;;;;;;;8.72;64.96;99293.38;4953830;28;20043;-78
2021/11/06 08:35:17;;;;;;;20.55;8.80;;;;;;;8.64;65.10;99301.88;4953782;29;20050;-76
2021/11/06 08:37:43;;;;;;;24.13;8.90;;;;;;;8.63;64.94;99302.81;4936406;29;20051;-80
2021/11/06 08:40:10;;;;;;;14.73;7.97;;;;;;;8.73;64.78;99306.47;4953763;28;20085;-80
2021/11/06 08:42:37;;;;;;;10.20;5.27;;;;;;;8.64;65.06;99316.84;4910527;29;20072;-76
2021/11/06 08:45:05;;;;;;;12.55;4.90;;;;;;;8.50;65.37;99331.91;4938592;29;20088;-81
2021/11/06 08:47:31;;;;;;;;;;;;;;;8.38;65.70;99317.78;4952590;28;20047;-84
2021/11/06 08:49:58;;;;;;;12.88;5.18;;;;;;;8.60;65.46;99305.69;4937180;29;19922;-79
2021/11/06 08:52:29;;;;;;;14.70;5.38;;;;;;;8.60;65.14;99304.84;4936119;29;20460;-78
2021/11/06 08:54:55;;;;;;;10.27;4.55;;;;;;;8.56;65.40;99301.59;4938605;29;20134;-80
2021/11/06 08:57:21;;;;;;;13.25;5.63;;;;;;;8.48;65.71;99288.16;4953297;29;20438;-81
2021/11/06 08:59:53;;;;;;;9.40;5.10;;;;;;;8.52;65.72;99286.97;4936534;29;20031;-80
2021/11/06 09:02:21;;;;;;;12.73;5.88;;;;;;;8.57;65.37;99280.41;4955574;28;20122;-78
2021/11/06 09:04:49;;;;;;;9.48;5.47;;;;;;;8.62;65.05;99293.22;4956710;29;20102;-81
2021/11/06 09:07:16;;;;;;;10.85;5.05;;;;;;;8.73;65.06;99282.72;4909470;29;20499;-81
2021/11/06 09:09:44;;;;;;;16.38;6.63;;;;;;;8.64;65.13;99286.06;4940769;29;20070;-79
2021/11/06 09:12:10;;;;;;;7.47;4.38;;;;;;;8.67;65.34;99290.25;4941837;29;20055;-79
2021/11/06 09:14:39;;;;;;;15.75;6.45;;;;;;;8.74;64.76;99291.47;4936088;29;20048;-82
2021/11/06 09:17:05;;;;;;;73.50;28.08;;;;;;;8.70;65.04;99279.50;4902574;29;20052;-80
2021/11/06 09:19:31;;;;;;;10.27;5.57;;;;;;;8.68;65.05;99276.94;4928076;28;20515;-78
2021/11/06 09:21:57;;;;;;;13.65;5.85;;;;;;;8.94;64.83;99270.66;4920304;29;20053;-81
2021/11/06 09:24:23;;;;;;;13.07;4.97;;;;;;;9.14;63.29;99264.66;4922065;28;20068;-81
2021/11/06 09:26:50;;;;;;;10.93;4.32;;;;;;;9.42;62.72;99259.88;4935549;29;20397;-80
2021/11/06 09:29:16;;;;;;;9.52;5.03;;;;;;;9.41;62.66;99252.06;4920202;28;20058;-79
2021/11/06 09:31:43;;;;;;;13.32;4.93;;;;;;;9.87;62.02;99254.50;4956608;28;20137;-80
2021/11/06 09:34:11;;;;;;;11.75;4.25;;;;;;;9.93;61.48;99261.09;4910337;28;20046;-80
2021/11/06 09:36:38;;;;;;;5.85;4.03;;;;;;;10.82;59.25;99242.31;4930718;29;20094;-80
2021/11/06 09:39:06;;;;;;;6.63;4.00;;;;;;;12.09;55.98;99225.97;4954790;28;20042;-82
2021/11/06 09:41:32;;;;;;;17.15;6.35;;;;;;;11.76;55.34;99232.47;4966682;28;20038;-79
2021/11/06 09:43:58;;;;;;;23.52;9.23;;;;;;;11.61;56.36;99226.72;4952805;28;20051;-81
2021/11/06 09:46:26;;;;;;;16.60;7.07;;;;;;;11.31;56.43;99236.41;4954400;28;20130;-78
2021/11/06 09:48:52;;;;;;;22.77;8.73;;;;;;;11.19;57.03;99219.78;4937393;29;20055;-80
2021/11/06 09:51:20;;;;;;;24.30;9.18;;;;;;;12.36;54.27;99202.38;4937470;28;20054;-78
2021/11/06 09:53:48;;;;;;;17.90;7.35;;;;;;;12.12;54.12;99223.06;4960189;28;20071;-82
2021/11/06 09:56:22;;;;;;;8.68;4.78;;;;;;;11.78;54.51;99214.63;4954528;29;20043;-77
2021/11/06 09:58:49;;;;;;;50.42;21.88;;;;;;;11.61;55.42;99219.63;4956286;28;20043;-79
2021/11/06 10:01:16;;;;;;;11.57;5.82;;;;;;;11.36;55.64;99222.75;4958091;28;20093;-78
2021/11/06 10:03:42;;;;;;;11.38;4.68;;;;;;;10.98;56.24;99217.19;4948575;29;20047;-80
2021/11/06 10:06:17;;;;;;;19.67;6.32;;;;;;;10.76;57.43;99223.47;4942929;28;20047;-79
2021/11/06 10:08:44;;;;;;;11.75;5.07;;;;;;;10.73;57.27;99219.28;4945629;29;20051;-81
2021/11/06 10:11:12;;;;;;;15.18;6.72;;;;;;;11.24;56.28;99222.88;4941377;28;20050;-82
2021/11/06 10:13:50;;;;;;;14.43;6.07;;;;;;;11.52;55.45;99219.59;4941232;29;20158;-80
2021/11/06 10:16:32;;;;;;;;;;;;;;;11.31;55.30;99223.16;4964733;28;20057;-82
2021/11/06 10:19:07;;;;;;;13.98;6.35;;;;;;;10.89;56.69;99220.63;4949296;28;19945;-80
2021/11/06 10:21:33;;;;;;;9.63;5.38;;;;;;;10.82;56.80;99226.44;4957170;28;20047;-78
2021/11/06 10:23:59;;;;;;;9.80;4.20;;;;;;;10.65;57.18;99237.59;4963629;28;20513;-80
2021/11/06 10:26:26;;;;;;;16.55;6.78;;;;;;;10.45;57.67;99224.25;4920966;29;20094;-81
2021/11/06 10:29:12;;;;;;;26.73;10.05;;;;;;;10.31;58.00;99230.66;4948618;29;20134;-75
2021/11/06 10:31:53;;;;;;;26.77;9.00;;;;;;;10.37;58.16;99224.09;4906115;29;20126;-82
2021/11/06 10:34:21;;;;;;;19.83;8.15;;;;;;;10.94;56.53;99210.47;4920495;29;20106;-79
2021/11/06 10:36:59;;;;;;;15.93;7.35;;;;;;;11.08;56.30;99212.78;4939109;29;20051;-78
2021/11/06 10:39:25;;;;;;;19.48;8.00;;;;;;;11.04;56.22;99206.09;4943187;29;20194;-81
2021/11/06 10:41:51;;;;;;;13.43;5.82;;;;;;;10.99;56.51;99213.56;4922842;29;20564;-80
2021/11/06 10:44:19;;;;;;;15.35;4.85;;;;;;;10.87;55.93;99209.34;4939362;29;20445;-79
2021/11/06 10:46:53;;;;;;;13.93;5.38;;;;;;;10.76;55.76;99213.72;4904529;29;20043;-82
2021/11/06 10:49:33;;;;;;;11.07;4.22;;;;;;;10.57;56.46;99219.75;4925144;29;20044;-78
2021/11/06 10:52:11;;;;;;;7.28;3.65;;;;;;;10.28;56.71;99215.09;4933810;29;20485;-80
2021/11/06 10:54:59;;;;;;;8.70;4.70;;;;;;;10.34;56.83;99213.72;4906764;29;20051;-77
2021/11/06 10:57:26;;;;;;;13.50;5.30;;;;;;;10.31;56.87;99219.28;4922110;29;20140;-78
2021/11/06 11:00:18;;;;;;;11.07;5.03;;;;;;;10.19;56.96;99216.69;4921403;29;20039;-79
2021/11/06 11:02:44;;;;;;;16.23;5.07;;;;;;;10.01;56.89;99223.50;4933634;29;20047;-80
2021/11/06 11:05:31;;;;;;;8.45;3.55;;;;;;;9.87;57.52;99212.25;4955297;29;20047;-76
2021/11/06 11:08:05;;;;;;;10.18;4.47;;;;;;;9.86;57.94;99218.47;4948285;29;20135;-77
2021/11/06 11:10:31;;;;;;;10.23;3.25;;;;;;;9.71;57.94;99209.19;4936308;29;20558;-77
2021/11/06 11:13:18;;;;;;;12.57;3.92;;;;;;;9.75;58.01;99226.44;4935809;29;20047;-80
2021/11/06 11:15:49;;;;;;;15.13;5.47;;;;;;;9.77;58.41;99219.25;4916896;29;20047;-81
2021/11/06 11:18:49;;;;;;;10.75;4.30;;;;;;;9.76;58.01;99214.06;4948755;29;20044;-81
2021/11/06 11:21:20;;;;;;;13.93;3.67;;;;;;;9.75;57.76;99212.41;4879055;29;20080;-78
2021/11/06 11:23:47;;;;;;;7.88;3.22;;;;;;;9.65;57.86;99214.97;4877253;29;20049;-79
2021/11/06 11:26:14;;;;;;;13.97;4.17;;;;;;;9.49;58.80;99213.53;4883957;29;20058;-83
2021/11/06 11:28:40;;;;;;;9.55;3.53;;;;;;;9.54;59.17;99214.03;4865050;29;20041;-78
2021/11/06 11:31:07;;;;;;;7.75;3.78;;;;;;;9.63;59.72;99203.66;4888860;29;20060;-81
2021/11/06 11:33:41;;;;;;;11.57;4.32;;;;;;;9.60;59.80;99215.31;4879134;29;20049;-77